China Grove, Texas
Current Conditions -  °F | °C
As of 11:53 AM on Friday 28 Nov 2014 (Local Time) from KSSF Reporting Station
Clear Clear  
Wind Chill: 69°   Ceiling: Unl
Heat Index: 69°   Visibility: 10mi
Dew Point: 50°   Wind: 14mph
Humidity: 51%   Direction: 220°SW
Pressure: 30.24"   Gusts: NA
Location:  29.3632°N, 98.3088°W
Report Text: KSSF 281753Z 22012KT 10SM CLR 21/10 A3024 RMK AO2 SLP240 T02060100 10206 20056 58024
Loading
Personal Weather Stations






























Interactive Weather Map New forecast layout! Learn more

10-Day Weather Forecast

Advertisements
Track Severe Weather on mobile